sensor_id;sensor_type;location;lat;lon;timestamp;P1;durP1;ratioP1;P2;durP2;ratioP2
68579;SDS011;55555;52.136;5.424;2022-08-19T00:01:50;10.77;;;5.30;;
68579;SDS011;55555;52.136;5.424;2022-08-19T00:04:21;9.10;;;6.50;;
68579;SDS011;55555;52.136;5.424;2022-08-19T00:06:52;7.95;;;5.35;;
68579;SDS011;55555;52.136;5.424;2022-08-19T00:09:20;10.68;;;5.70;;
68579;SDS011;55555;52.136;5.424;2022-08-19T00:11:50;10.70;;;5.85;;
68579;SDS011;55555;52.136;5.424;2022-08-19T00:14:19;10.10;;;5.83;;
68579;SDS011;55555;52.136;5.424;2022-08-19T00:16:47;9.45;;;5.85;;
68579;SDS011;55555;52.136;5.424;2022-08-19T00:19:17;11.43;;;6.45;;
68579;SDS011;55555;52.136;5.424;2022-08-19T00:21:44;8.52;;;5.63;;
68579;SDS011;55555;52.136;5.424;2022-08-19T00:24:12;9.85;;;6.15;;
68579;SDS011;55555;52.136;5.424;2022-08-19T00:26:41;8.90;;;6.23;;
68579;SDS011;55555;52.136;5.424;2022-08-19T00:29:10;9.02;;;5.35;;
68579;SDS011;55555;52.136;5.424;2022-08-19T00:31:40;9.25;;;6.00;;
68579;SDS011;55555;52.136;5.424;2022-08-19T00:34:09;10.57;;;5.97;;
68579;SDS011;55555;52.136;5.424;2022-08-19T00:36:39;11.95;;;5.90;;
68579;SDS011;55555;52.136;5.424;2022-08-19T00:39:07;9.70;;;6.27;;
68579;SDS011;55555;52.136;5.424;2022-08-19T00:41:35;10.60;;;5.80;;
68579;SDS011;55555;52.136;5.424;2022-08-19T00:44:10;10.70;;;5.97;;
68579;SDS011;55555;52.136;5.424;2022-08-19T00:46:42;15.02;;;6.22;;
68579;SDS011;55555;52.136;5.424;2022-08-19T00:52:06;11.93;;;6.17;;
68579;SDS011;55555;52.136;5.424;2022-08-19T00:54:40;9.00;;;6.20;;
68579;SDS011;55555;52.136;5.424;2022-08-19T00:57:10;9.88;;;5.82;;
68579;SDS011;55555;52.136;5.424;2022-08-19T00:59:42;11.30;;;5.50;;
68579;SDS011;55555;52.136;5.424;2022-08-19T01:02:28;8.98;;;5.97;;
68579;SDS011;55555;52.136;5.424;2022-08-19T01:04:57;10.60;;;5.63;;
68579;SDS011;55555;52.136;5.424;2022-08-19T01:07:26;10.95;;;5.43;;
68579;SDS011;55555;52.136;5.424;2022-08-19T01:10:00;10.50;;;5.63;;
68579;SDS011;55555;52.136;5.424;2022-08-19T01:12:29;9.73;;;5.80;;
68579;SDS011;55555;52.136;5.424;2022-08-19T01:14:57;9.30;;;5.78;;
68579;SDS011;55555;52.136;5.424;2022-08-19T01:17:25;8.93;;;6.07;;
68579;SDS011;55555;52.136;5.424;2022-08-19T01:19:53;11.30;;;5.60;;
68579;SDS011;55555;52.136;5.424;2022-08-19T01:24:58;10.88;;;6.28;;
68579;SDS011;55555;52.136;5.424;2022-08-19T01:27:25;12.18;;;5.63;;
68579;SDS011;55555;52.136;5.424;2022-08-19T01:30:09;10.63;;;5.30;;
68579;SDS011;55555;52.136;5.424;2022-08-19T01:32:48;8.60;;;5.82;;
68579;SDS011;55555;52.136;5.424;2022-08-19T01:35:16;8.52;;;5.50;;
68579;SDS011;55555;52.136;5.424;2022-08-19T01:37:45;15.38;;;5.65;;
68579;SDS011;55555;52.136;5.424;2022-08-19T01:40:19;10.02;;;5.57;;
68579;SDS011;55555;52.136;5.424;2022-08-19T01:42:49;10.27;;;5.47;;
68579;SDS011;55555;52.136;5.424;2022-08-19T01:45:18;8.45;;;4.80;;
68579;SDS011;55555;52.136;5.424;2022-08-19T01:47:48;10.45;;;5.80;;
68579;SDS011;55555;52.136;5.424;2022-08-19T01:50:27;9.35;;;5.90;;
68579;SDS011;55555;52.136;5.424;2022-08-19T01:52:57;11.82;;;5.75;;
68579;SDS011;55555;52.136;5.424;2022-08-19T01:55:33;7.63;;;5.43;;
68579;SDS011;55555;52.136;5.424;2022-08-19T01:58:07;10.32;;;5.75;;
68579;SDS011;55555;52.136;5.424;2022-08-19T02:00:41;10.50;;;5.30;;
68579;SDS011;55555;52.136;5.424;2022-08-19T02:03:09;9.40;;;5.40;;
68579;SDS011;55555;52.136;5.424;2022-08-19T02:05:37;8.98;;;5.80;;
68579;SDS011;55555;52.136;5.424;2022-08-19T02:08:05;8.50;;;5.47;;
68579;SDS011;55555;52.136;5.424;2022-08-19T02:10:33;11.73;;;5.75;;
68579;SDS011;55555;52.136;5.424;2022-08-19T02:13:06;9.98;;;5.25;;
68579;SDS011;55555;52.136;5.424;2022-08-19T02:15:33;8.25;;;5.57;;
68579;SDS011;55555;52.136;5.424;2022-08-19T02:18:00;10.68;;;5.50;;
68579;SDS011;55555;52.136;5.424;2022-08-19T02:20:27;10.73;;;5.03;;
68579;SDS011;55555;52.136;5.424;2022-08-19T02:22:54;10.43;;;5.57;;
68579;SDS011;55555;52.136;5.424;2022-08-19T02:25:21;7.93;;;5.45;;
68579;SDS011;55555;52.136;5.424;2022-08-19T02:27:48;8.63;;;4.82;;
68579;SDS011;55555;52.136;5.424;2022-08-19T02:30:16;9.30;;;4.97;;
68579;SDS011;55555;52.136;5.424;2022-08-19T02:32:44;10.47;;;4.90;;
68579;SDS011;55555;52.136;5.424;2022-08-19T02:35:12;8.68;;;5.13;;
68579;SDS011;55555;52.136;5.424;2022-08-19T02:37:41;8.23;;;5.07;;
68579;SDS011;55555;52.136;5.424;2022-08-19T02:40:28;11.60;;;5.03;;
68579;SDS011;55555;52.136;5.424;2022-08-19T02:43:00;8.15;;;4.70;;
68579;SDS011;55555;52.136;5.424;2022-08-19T02:45:33;9.87;;;5.10;;
68579;SDS011;55555;52.136;5.424;2022-08-19T02:48:06;10.10;;;4.75;;
68579;SDS011;55555;52.136;5.424;2022-08-19T02:50:47;9.80;;;4.65;;
68579;SDS011;55555;52.136;5.424;2022-08-19T02:53:19;10.27;;;5.47;;
68579;SDS011;55555;52.136;5.424;2022-08-19T02:55:49;11.07;;;5.95;;
68579;SDS011;55555;52.136;5.424;2022-08-19T02:58:17;10.97;;;5.80;;
68579;SDS011;55555;52.136;5.424;2022-08-19T03:00:53;8.88;;;5.03;;
68579;SDS011;55555;52.136;5.424;2022-08-19T03:03:22;10.65;;;4.80;;
68579;SDS011;55555;52.136;5.424;2022-08-19T03:05:49;7.10;;;4.97;;
68579;SDS011;55555;52.136;5.424;2022-08-19T03:08:22;8.88;;;5.22;;
68579;SDS011;55555;52.136;5.424;2022-08-19T03:10:51;8.47;;;4.73;;
68579;SDS011;55555;52.136;5.424;2022-08-19T03:13:19;9.25;;;5.10;;
68579;SDS011;55555;52.136;5.424;2022-08-19T03:15:46;9.23;;;5.25;;
68579;SDS011;55555;52.136;5.424;2022-08-19T03:18:14;7.13;;;4.95;;
68579;SDS011;55555;52.136;5.424;2022-08-19T03:20:43;8.52;;;5.13;;
68579;SDS011;55555;52.136;5.424;2022-08-19T03:23:14;9.93;;;5.17;;
68579;SDS011;55555;52.136;5.424;2022-08-19T03:25:45;9.40;;;5.10;;
68579;SDS011;55555;52.136;5.424;2022-08-19T03:28:34;9.68;;;5.28;;
68579;SDS011;55555;52.136;5.424;2022-08-19T03:31:02;10.95;;;6.20;;
68579;SDS011;55555;52.136;5.424;2022-08-19T03:33:53;11.65;;;7.15;;
68579;SDS011;55555;52.136;5.424;2022-08-19T03:36:21;12.57;;;8.23;;
68579;SDS011;55555;52.136;5.424;2022-08-19T03:38:55;13.45;;;7.97;;
68579;SDS011;55555;52.136;5.424;2022-08-19T03:41:26;15.45;;;7.97;;
68579;SDS011;55555;52.136;5.424;2022-08-19T03:44:15;14.43;;;7.80;;
68579;SDS011;55555;52.136;5.424;2022-08-19T03:46:50;17.30;;;9.32;;
68579;SDS011;55555;52.136;5.424;2022-08-19T03:49:21;16.50;;;9.50;;
68579;SDS011;55555;52.136;5.424;2022-08-19T03:51:54;18.08;;;9.13;;
68579;SDS011;55555;52.136;5.424;2022-08-19T03:54:26;14.65;;;8.80;;
68579;SDS011;55555;52.136;5.424;2022-08-19T03:56:54;14.23;;;8.50;;
68579;SDS011;55555;52.136;5.424;2022-08-19T03:59:24;14.40;;;8.20;;
68579;SDS011;55555;52.136;5.424;2022-08-19T04:01:55;15.63;;;9.00;;
68579;SDS011;55555;52.136;5.424;2022-08-19T04:04:25;14.80;;;9.45;;
68579;SDS011;55555;52.136;5.424;2022-08-19T04:06:54;13.98;;;8.38;;
68579;SDS011;55555;52.136;5.424;2022-08-19T04:09:22;17.52;;;9.25;;
68579;SDS011;55555;52.136;5.424;2022-08-19T04:11:50;14.15;;;9.00;;
68579;SDS011;55555;52.136;5.424;2022-08-19T04:14:22;17.10;;;9.93;;
68579;SDS011;55555;52.136;5.424;2022-08-19T04:16:54;18.20;;;11.60;;
68579;SDS011;55555;52.136;5.424;2022-08-19T04:19:21;20.73;;;10.52;;
68579;SDS011;55555;52.136;5.424;2022-08-19T04:21:50;16.67;;;10.40;;
68579;SDS011;55555;52.136;5.424;2022-08-19T04:24:19;18.50;;;10.20;;
68579;SDS011;55555;52.136;5.424;2022-08-19T04:26:47;20.10;;;10.53;;
68579;SDS011;55555;52.136;5.424;2022-08-19T04:29:17;17.20;;;10.38;;
68579;SDS011;55555;52.136;5.424;2022-08-19T04:31:51;17.80;;;10.57;;
68579;SDS011;55555;52.136;5.424;2022-08-19T04:34:20;17.23;;;10.93;;
68579;SDS011;55555;52.136;5.424;2022-08-19T04:36:51;21.50;;;10.15;;
68579;SDS011;55555;52.136;5.424;2022-08-19T04:39:22;16.03;;;10.30;;
68579;SDS011;55555;52.136;5.424;2022-08-19T04:42:11;17.75;;;10.68;;
68579;SDS011;55555;52.136;5.424;2022-08-19T04:44:57;17.90;;;10.55;;
68579;SDS011;55555;52.136;5.424;2022-08-19T04:47:25;19.60;;;10.43;;
68579;SDS011;55555;52.136;5.424;2022-08-19T04:50:12;17.58;;;10.32;;
68579;SDS011;55555;52.136;5.424;2022-08-19T04:52:40;19.77;;;11.13;;
68579;SDS011;55555;52.136;5.424;2022-08-19T04:55:09;45.50;;;10.52;;
68579;SDS011;55555;52.136;5.424;2022-08-19T04:57:38;21.77;;;10.10;;
68579;SDS011;55555;52.136;5.424;2022-08-19T05:00:07;17.58;;;10.90;;
68579;SDS011;55555;52.136;5.424;2022-08-19T05:02:35;16.52;;;10.45;;
68579;SDS011;55555;52.136;5.424;2022-08-19T05:05:03;15.83;;;10.23;;
68579;SDS011;55555;52.136;5.424;2022-08-19T05:07:32;17.10;;;9.82;;
68579;SDS011;55555;52.136;5.424;2022-08-19T05:09:59;16.52;;;10.02;;
68579;SDS011;55555;52.136;5.424;2022-08-19T05:12:26;17.73;;;10.65;;
68579;SDS011;55555;52.136;5.424;2022-08-19T05:14:55;16.67;;;9.40;;
68579;SDS011;55555;52.136;5.424;2022-08-19T05:17:24;17.83;;;10.30;;
68579;SDS011;55555;52.136;5.424;2022-08-19T05:19:56;17.63;;;9.82;;
68579;SDS011;55555;52.136;5.424;2022-08-19T05:22:43;15.88;;;10.18;;
68579;SDS011;55555;52.136;5.424;2022-08-19T05:25:14;19.27;;;10.60;;
68579;SDS011;55555;52.136;5.424;2022-08-19T05:27:46;16.13;;;9.93;;
68579;SDS011;55555;52.136;5.424;2022-08-19T05:30:14;15.43;;;9.73;;
68579;SDS011;55555;52.136;5.424;2022-08-19T05:32:42;16.48;;;10.23;;
68579;SDS011;55555;52.136;5.424;2022-08-19T05:35:10;15.20;;;9.95;;
68579;SDS011;55555;52.136;5.424;2022-08-19T05:37:37;19.52;;;10.57;;
68579;SDS011;55555;52.136;5.424;2022-08-19T05:40:06;20.13;;;11.93;;
68579;SDS011;55555;52.136;5.424;2022-08-19T05:42:35;18.97;;;11.70;;
68579;SDS011;55555;52.136;5.424;2022-08-19T05:45:03;17.83;;;10.68;;
68579;SDS011;55555;52.136;5.424;2022-08-19T05:47:32;21.67;;;13.25;;
68579;SDS011;55555;52.136;5.424;2022-08-19T05:49:59;29.25;;;14.20;;
68579;SDS011;55555;52.136;5.424;2022-08-19T05:52:30;29.63;;;16.55;;
68579;SDS011;55555;52.136;5.424;2022-08-19T05:54:58;29.83;;;16.93;;
68579;SDS011;55555;52.136;5.424;2022-08-19T05:57:25;33.78;;;18.67;;
68579;SDS011;55555;52.136;5.424;2022-08-19T05:59:54;42.33;;;22.13;;
68579;SDS011;55555;52.136;5.424;2022-08-19T06:02:25;40.03;;;21.10;;
68579;SDS011;55555;52.136;5.424;2022-08-19T06:04:53;41.70;;;22.15;;
68579;SDS011;55555;52.136;5.424;2022-08-19T06:07:20;44.83;;;21.53;;
68579;SDS011;55555;52.136;5.424;2022-08-19T06:09:47;40.28;;;20.52;;
68579;SDS011;55555;52.136;5.424;2022-08-19T06:12:25;39.28;;;21.05;;
68579;SDS011;55555;52.136;5.424;2022-08-19T06:14:56;36.60;;;19.55;;
68579;SDS011;55555;52.136;5.424;2022-08-19T06:17:26;35.88;;;20.02;;
68579;SDS011;55555;52.136;5.424;2022-08-19T06:19:56;39.17;;;20.50;;
68579;SDS011;55555;52.136;5.424;2022-08-19T06:22:24;40.45;;;20.90;;
68579;SDS011;55555;52.136;5.424;2022-08-19T06:24:52;42.67;;;23.35;;
68579;SDS011;55555;52.136;5.424;2022-08-19T06:27:20;47.70;;;24.45;;
68579;SDS011;55555;52.136;5.424;2022-08-19T06:29:48;52.38;;;26.98;;
68579;SDS011;55555;52.136;5.424;2022-08-19T06:32:16;65.03;;;30.40;;
68579;SDS011;55555;52.136;5.424;2022-08-19T06:34:44;57.75;;;29.85;;
68579;SDS011;55555;52.136;5.424;2022-08-19T06:37:12;65.03;;;31.73;;
68579;SDS011;55555;52.136;5.424;2022-08-19T06:39:41;69.50;;;31.67;;
68579;SDS011;55555;52.136;5.424;2022-08-19T06:42:11;64.90;;;34.17;;
68579;SDS011;55555;52.136;5.424;2022-08-19T06:44:43;61.60;;;33.83;;
68579;SDS011;55555;52.136;5.424;2022-08-19T06:47:15;53.92;;;31.92;;
68579;SDS011;55555;52.136;5.424;2022-08-19T06:49:54;56.63;;;31.85;;
68579;SDS011;55555;52.136;5.424;2022-08-19T06:52:31;62.70;;;33.20;;
68579;SDS011;55555;52.136;5.424;2022-08-19T06:55:03;62.58;;;33.70;;
68579;SDS011;55555;52.136;5.424;2022-08-19T06:57:32;64.87;;;34.50;;
68579;SDS011;55555;52.136;5.424;2022-08-19T07:00:00;60.80;;;31.42;;
68579;SDS011;55555;52.136;5.424;2022-08-19T07:02:28;68.80;;;34.63;;
68579;SDS011;55555;52.136;5.424;2022-08-19T07:04:55;72.72;;;35.20;;
68579;SDS011;55555;52.136;5.424;2022-08-19T07:07:32;71.35;;;33.30;;
68579;SDS011;55555;52.136;5.424;2022-08-19T07:10:00;72.97;;;34.10;;
68579;SDS011;55555;52.136;5.424;2022-08-19T07:12:31;78.07;;;34.03;;
68579;SDS011;55555;52.136;5.424;2022-08-19T07:15:01;75.72;;;34.85;;
68579;SDS011;55555;52.136;5.424;2022-08-19T07:17:31;93.93;;;36.33;;
68579;SDS011;55555;52.136;5.424;2022-08-19T07:20:00;82.85;;;35.72;;
68579;SDS011;55555;52.136;5.424;2022-08-19T07:22:32;83.80;;;38.50;;
68579;SDS011;55555;52.136;5.424;2022-08-19T07:25:03;88.95;;;39.60;;
68579;SDS011;55555;52.136;5.424;2022-08-19T07:27:33;83.95;;;39.08;;
68579;SDS011;55555;52.136;5.424;2022-08-19T07:30:00;87.50;;;40.33;;
68579;SDS011;55555;52.136;5.424;2022-08-19T07:32:27;82.32;;;41.05;;
68579;SDS011;55555;52.136;5.424;2022-08-19T07:34:57;85.13;;;40.67;;
68579;SDS011;55555;52.136;5.424;2022-08-19T07:37:26;76.40;;;40.13;;
68579;SDS011;55555;52.136;5.424;2022-08-19T07:39:59;79.18;;;40.42;;
68579;SDS011;55555;52.136;5.424;2022-08-19T07:42:30;82.28;;;41.35;;
68579;SDS011;55555;52.136;5.424;2022-08-19T07:44:58;77.55;;;40.60;;
68579;SDS011;55555;52.136;5.424;2022-08-19T07:47:25;78.57;;;40.20;;
68579;SDS011;55555;52.136;5.424;2022-08-19T07:50:14;79.55;;;41.47;;
68579;SDS011;55555;52.136;5.424;2022-08-19T07:52:42;77.47;;;42.22;;
68579;SDS011;55555;52.136;5.424;2022-08-19T07:55:13;79.10;;;41.33;;
68579;SDS011;55555;52.136;5.424;2022-08-19T07:58:01;75.45;;;38.55;;
68579;SDS011;55555;52.136;5.424;2022-08-19T08:00:29;64.57;;;37.57;;
68579;SDS011;55555;52.136;5.424;2022-08-19T08:02:57;70.72;;;37.88;;
68579;SDS011;55555;52.136;5.424;2022-08-19T08:05:24;65.70;;;38.53;;
68579;SDS011;55555;52.136;5.424;2022-08-19T08:08:13;62.47;;;35.90;;
68579;SDS011;55555;52.136;5.424;2022-08-19T08:10:59;64.70;;;35.65;;
68579;SDS011;55555;52.136;5.424;2022-08-19T08:13:26;57.80;;;34.30;;
68579;SDS011;55555;52.136;5.424;2022-08-19T08:15:54;60.47;;;35.35;;
68579;SDS011;55555;52.136;5.424;2022-08-19T08:18:23;54.50;;;33.00;;
68579;SDS011;55555;52.136;5.424;2022-08-19T08:20:55;49.85;;;31.70;;
68579;SDS011;55555;52.136;5.424;2022-08-19T08:23:25;55.42;;;31.48;;
68579;SDS011;55555;52.136;5.424;2022-08-19T08:25:53;53.60;;;31.13;;
68579;SDS011;55555;52.136;5.424;2022-08-19T08:28:24;51.75;;;30.17;;
68579;SDS011;55555;52.136;5.424;2022-08-19T08:30:55;49.63;;;30.42;;
68579;SDS011;55555;52.136;5.424;2022-08-19T08:33:24;51.03;;;30.15;;
68579;SDS011;55555;52.136;5.424;2022-08-19T08:36:00;50.53;;;30.70;;
68579;SDS011;55555;52.136;5.424;2022-08-19T08:38:32;48.07;;;29.40;;
68579;SDS011;55555;52.136;5.424;2022-08-19T08:41:11;45.88;;;28.50;;
68579;SDS011;55555;52.136;5.424;2022-08-19T08:43:50;50.72;;;28.08;;
68579;SDS011;55555;52.136;5.424;2022-08-19T08:46:21;48.28;;;27.17;;
68579;SDS011;55555;52.136;5.424;2022-08-19T08:51:48;44.23;;;26.10;;
68579;SDS011;55555;52.136;5.424;2022-08-19T08:54:32;42.35;;;24.50;;
68579;SDS011;55555;52.136;5.424;2022-08-19T08:57:15;37.35;;;22.15;;
68579;SDS011;55555;52.136;5.424;2022-08-19T09:00:04;36.80;;;20.45;;
68579;SDS011;55555;52.136;5.424;2022-08-19T09:02:41;34.72;;;20.70;;
68579;SDS011;55555;52.136;5.424;2022-08-19T09:05:09;32.80;;;19.93;;
68579;SDS011;55555;52.136;5.424;2022-08-19T09:16:17;28.73;;;18.52;;
68579;SDS011;55555;52.136;5.424;2022-08-19T09:18:54;32.40;;;19.03;;
68579;SDS011;55555;52.136;5.424;2022-08-19T09:21:25;31.23;;;18.23;;
68579;SDS011;55555;52.136;5.424;2022-08-19T09:23:58;33.40;;;18.58;;
68579;SDS011;55555;52.136;5.424;2022-08-19T09:26:28;28.30;;;17.40;;
68579;SDS011;55555;52.136;5.424;2022-08-19T09:29:17;28.63;;;18.30;;
68579;SDS011;55555;52.136;5.424;2022-08-19T09:31:47;30.07;;;18.67;;
68579;SDS011;55555;52.136;5.424;2022-08-19T09:34:15;29.55;;;17.08;;
68579;SDS011;55555;52.136;5.424;2022-08-19T09:36:47;24.67;;;16.92;;
68579;SDS011;55555;52.136;5.424;2022-08-19T09:39:19;27.92;;;16.05;;
68579;SDS011;55555;52.136;5.424;2022-08-19T09:41:46;26.52;;;15.60;;
68579;SDS011;55555;52.136;5.424;2022-08-19T09:44:15;22.43;;;15.90;;
68579;SDS011;55555;52.136;5.424;2022-08-19T09:46:44;24.92;;;16.38;;
68579;SDS011;55555;52.136;5.424;2022-08-19T09:49:13;23.67;;;14.82;;
68579;SDS011;55555;52.136;5.424;2022-08-19T09:51:43;23.40;;;14.25;;
68579;SDS011;55555;52.136;5.424;2022-08-19T09:54:16;23.30;;;14.40;;
68579;SDS011;55555;52.136;5.424;2022-08-19T09:56:50;24.27;;;15.10;;
68579;SDS011;55555;52.136;5.424;2022-08-19T09:59:18;20.73;;;13.77;;
68579;SDS011;55555;52.136;5.424;2022-08-19T10:01:45;21.50;;;12.45;;
68579;SDS011;55555;52.136;5.424;2022-08-19T10:04:13;24.33;;;13.02;;
68579;SDS011;55555;52.136;5.424;2022-08-19T10:06:48;19.15;;;12.13;;
68579;SDS011;55555;52.136;5.424;2022-08-19T10:09:19;19.50;;;12.30;;
68579;SDS011;55555;52.136;5.424;2022-08-19T10:11:59;19.95;;;11.57;;
68579;SDS011;55555;52.136;5.424;2022-08-19T10:14:27;21.02;;;12.90;;
68579;SDS011;55555;52.136;5.424;2022-08-19T10:16:55;24.98;;;14.45;;
68579;SDS011;55555;52.136;5.424;2022-08-19T10:19:24;21.20;;;13.10;;
68579;SDS011;55555;52.136;5.424;2022-08-19T10:21:52;21.00;;;11.97;;
68579;SDS011;55555;52.136;5.424;2022-08-19T10:24:25;20.33;;;12.48;;
68579;SDS011;55555;52.136;5.424;2022-08-19T10:26:54;22.83;;;14.63;;
68579;SDS011;55555;52.136;5.424;2022-08-19T10:29:25;20.33;;;14.50;;
68579;SDS011;55555;52.136;5.424;2022-08-19T10:31:58;24.50;;;15.07;;
68579;SDS011;55555;52.136;5.424;2022-08-19T10:34:38;24.27;;;15.53;;
68579;SDS011;55555;52.136;5.424;2022-08-19T10:37:14;18.50;;;14.77;;
68579;SDS011;55555;52.136;5.424;2022-08-19T10:39:56;18.48;;;14.10;;
68579;SDS011;55555;52.136;5.424;2022-08-19T10:42:23;22.10;;;15.27;;
68579;SDS011;55555;52.136;5.424;2022-08-19T10:44:50;22.88;;;16.02;;
68579;SDS011;55555;52.136;5.424;2022-08-19T10:47:17;19.63;;;13.80;;
68579;SDS011;55555;52.136;5.424;2022-08-19T10:49:56;21.17;;;16.20;;
68579;SDS011;55555;52.136;5.424;2022-08-19T10:52:43;21.50;;;15.43;;
68579;SDS011;55555;52.136;5.424;2022-08-19T10:55:16;22.00;;;15.30;;
68579;SDS011;55555;52.136;5.424;2022-08-19T10:58:11;24.42;;;15.30;;
68579;SDS011;55555;52.136;5.424;2022-08-19T11:00:42;20.93;;;15.27;;
68579;SDS011;55555;52.136;5.424;2022-08-19T11:03:09;25.40;;;16.75;;
68579;SDS011;55555;52.136;5.424;2022-08-19T11:05:37;27.85;;;17.85;;
68579;SDS011;55555;52.136;5.424;2022-08-19T11:08:05;23.60;;;16.98;;
68579;SDS011;55555;52.136;5.424;2022-08-19T11:10:49;20.70;;;15.55;;
68579;SDS011;55555;52.136;5.424;2022-08-19T11:13:22;23.73;;;19.07;;
68579;SDS011;55555;52.136;5.424;2022-08-19T11:15:57;27.13;;;17.13;;
68579;SDS011;55555;52.136;5.424;2022-08-19T11:18:37;24.30;;;18.20;;
68579;SDS011;55555;52.136;5.424;2022-08-19T11:23:39;26.52;;;19.45;;
68579;SDS011;55555;52.136;5.424;2022-08-19T11:26:06;22.47;;;18.07;;
68579;SDS011;55555;52.136;5.424;2022-08-19T11:28:33;23.20;;;18.75;;
68579;SDS011;55555;52.136;5.424;2022-08-19T11:31:01;27.63;;;18.40;;
68579;SDS011;55555;52.136;5.424;2022-08-19T11:33:30;29.23;;;19.33;;
68579;SDS011;55555;52.136;5.424;2022-08-19T11:35:58;26.55;;;20.15;;
68579;SDS011;55555;52.136;5.424;2022-08-19T11:38:26;27.10;;;17.40;;
68579;SDS011;55555;52.136;5.424;2022-08-19T11:40:54;25.65;;;18.00;;
68579;SDS011;55555;52.136;5.424;2022-08-19T11:43:27;25.98;;;18.02;;
68579;SDS011;55555;52.136;5.424;2022-08-19T11:45:59;28.70;;;19.02;;
68579;SDS011;55555;52.136;5.424;2022-08-19T11:48:33;28.60;;;20.92;;
68579;SDS011;55555;52.136;5.424;2022-08-19T11:51:03;27.63;;;18.43;;
68579;SDS011;55555;52.136;5.424;2022-08-19T11:53:35;30.67;;;19.63;;
68579;SDS011;55555;52.136;5.424;2022-08-19T11:56:04;25.98;;;19.52;;
68579;SDS011;55555;52.136;5.424;2022-08-19T11:58:33;32.45;;;22.55;;
68579;SDS011;55555;52.136;5.424;2022-08-19T12:01:01;26.90;;;18.23;;
68579;SDS011;55555;52.136;5.424;2022-08-19T12:03:32;22.97;;;15.83;;
68579;SDS011;55555;52.136;5.424;2022-08-19T12:06:07;27.17;;;17.60;;
68579;SDS011;55555;52.136;5.424;2022-08-19T12:08:39;30.10;;;19.95;;
68579;SDS011;55555;52.136;5.424;2022-08-19T12:11:08;34.08;;;20.83;;
68579;SDS011;55555;52.136;5.424;2022-08-19T12:13:37;30.13;;;20.63;;
68579;SDS011;55555;52.136;5.424;2022-08-19T12:16:08;28.60;;;18.03;;
68579;SDS011;55555;52.136;5.424;2022-08-19T12:18:38;26.23;;;17.55;;
68579;SDS011;55555;52.136;5.424;2022-08-19T12:21:16;27.92;;;18.85;;
68579;SDS011;55555;52.136;5.424;2022-08-19T12:23:54;25.95;;;18.20;;
68579;SDS011;55555;52.136;5.424;2022-08-19T12:26:24;29.50;;;20.13;;
68579;SDS011;55555;52.136;5.424;2022-08-19T12:28:53;27.63;;;18.27;;
68579;SDS011;55555;52.136;5.424;2022-08-19T12:31:20;28.92;;;19.92;;
68579;SDS011;55555;52.136;5.424;2022-08-19T12:33:47;28.52;;;20.65;;
68579;SDS011;55555;52.136;5.424;2022-08-19T12:36:15;29.58;;;20.65;;
68579;SDS011;55555;52.136;5.424;2022-08-19T12:38:43;30.05;;;21.00;;
68579;SDS011;55555;52.136;5.424;2022-08-19T12:41:12;28.80;;;20.50;;
68579;SDS011;55555;52.136;5.424;2022-08-19T12:43:44;32.00;;;22.17;;
68579;SDS011;55555;52.136;5.424;2022-08-19T12:46:11;24.58;;;18.40;;
68579;SDS011;55555;52.136;5.424;2022-08-19T12:48:43;24.98;;;17.58;;
68579;SDS011;55555;52.136;5.424;2022-08-19T12:51:12;27.88;;;19.67;;
68579;SDS011;55555;52.136;5.424;2022-08-19T12:53:43;22.93;;;17.67;;
68579;SDS011;55555;52.136;5.424;2022-08-19T12:56:11;21.85;;;15.85;;
68579;SDS011;55555;52.136;5.424;2022-08-19T12:58:41;21.70;;;14.23;;
68579;SDS011;55555;52.136;5.424;2022-08-19T13:01:18;22.35;;;15.80;;
68579;SDS011;55555;52.136;5.424;2022-08-19T13:03:48;19.83;;;13.95;;
68579;SDS011;55555;52.136;5.424;2022-08-19T13:06:16;24.23;;;16.70;;
68579;SDS011;55555;52.136;5.424;2022-08-19T13:08:45;24.23;;;15.90;;
68579;SDS011;55555;52.136;5.424;2022-08-19T13:11:16;21.70;;;16.40;;
68579;SDS011;55555;52.136;5.424;2022-08-19T13:13:48;22.17;;;14.50;;
68579;SDS011;55555;52.136;5.424;2022-08-19T13:16:18;22.55;;;14.43;;
68579;SDS011;55555;52.136;5.424;2022-08-19T13:18:46;18.33;;;13.70;;
68579;SDS011;55555;52.136;5.424;2022-08-19T13:21:13;19.92;;;14.00;;
68579;SDS011;55555;52.136;5.424;2022-08-19T13:23:41;19.05;;;13.52;;
68579;SDS011;55555;52.136;5.424;2022-08-19T13:26:09;20.77;;;14.95;;
68579;SDS011;55555;52.136;5.424;2022-08-19T13:28:39;21.27;;;15.68;;
68579;SDS011;55555;52.136;5.424;2022-08-19T13:31:27;31.90;;;19.53;;
68579;SDS011;55555;52.136;5.424;2022-08-19T13:34:16;27.35;;;20.38;;
68579;SDS011;55555;52.136;5.424;2022-08-19T13:36:47;31.42;;;21.17;;
68579;SDS011;55555;52.136;5.424;2022-08-19T13:39:14;30.98;;;22.33;;
68579;SDS011;55555;52.136;5.424;2022-08-19T13:41:43;31.17;;;23.17;;
68579;SDS011;55555;52.136;5.424;2022-08-19T13:44:14;32.03;;;24.17;;
68579;SDS011;55555;52.136;5.424;2022-08-19T13:46:44;34.25;;;25.20;;
68579;SDS011;55555;52.136;5.424;2022-08-19T13:49:13;39.08;;;25.92;;
68579;SDS011;55555;52.136;5.424;2022-08-19T13:51:44;30.17;;;23.73;;
68579;SDS011;55555;52.136;5.424;2022-08-19T13:54:11;34.15;;;25.48;;
68579;SDS011;55555;52.136;5.424;2022-08-19T13:56:39;32.80;;;24.20;;
68579;SDS011;55555;52.136;5.424;2022-08-19T13:59:11;31.52;;;23.70;;
68579;SDS011;55555;52.136;5.424;2022-08-19T14:01:39;32.85;;;24.58;;
68579;SDS011;55555;52.136;5.424;2022-08-19T14:04:07;31.60;;;23.73;;
68579;SDS011;55555;52.136;5.424;2022-08-19T14:06:34;26.67;;;19.73;;
68579;SDS011;55555;52.136;5.424;2022-08-19T14:09:02;28.00;;;20.80;;
68579;SDS011;55555;52.136;5.424;2022-08-19T14:11:30;25.95;;;20.90;;
68579;SDS011;55555;52.136;5.424;2022-08-19T14:13:57;26.05;;;21.17;;
68579;SDS011;55555;52.136;5.424;2022-08-19T14:16:24;24.63;;;19.10;;
68579;SDS011;55555;52.136;5.424;2022-08-19T14:18:53;26.25;;;19.33;;
68579;SDS011;55555;52.136;5.424;2022-08-19T14:21:20;24.57;;;19.47;;
68579;SDS011;55555;52.136;5.424;2022-08-19T14:23:50;26.33;;;19.40;;
68579;SDS011;55555;52.136;5.424;2022-08-19T14:26:18;29.55;;;20.90;;
68579;SDS011;55555;52.136;5.424;2022-08-19T14:28:50;29.30;;;18.75;;
68579;SDS011;55555;52.136;5.424;2022-08-19T14:31:18;26.35;;;16.63;;
68579;SDS011;55555;52.136;5.424;2022-08-19T14:33:46;33.87;;;18.57;;
68579;SDS011;55555;52.136;5.424;2022-08-19T14:36:14;47.22;;;19.77;;
68579;SDS011;55555;52.136;5.424;2022-08-19T14:38:41;74.88;;;21.45;;
68579;SDS011;55555;52.136;5.424;2022-08-19T14:41:10;43.80;;;18.60;;
68579;SDS011;55555;52.136;5.424;2022-08-19T14:43:47;32.90;;;17.50;;
68579;SDS011;55555;52.136;5.424;2022-08-19T14:46:17;22.53;;;16.13;;
68579;SDS011;55555;52.136;5.424;2022-08-19T14:48:47;30.90;;;16.67;;
68579;SDS011;55555;52.136;5.424;2022-08-19T14:51:18;43.05;;;19.48;;
68579;SDS011;55555;52.136;5.424;2022-08-19T14:53:47;41.53;;;18.33;;
68579;SDS011;55555;52.136;5.424;2022-08-19T14:56:17;20.75;;;13.82;;
68579;SDS011;55555;52.136;5.424;2022-08-19T14:58:49;18.30;;;13.13;;
68579;SDS011;55555;52.136;5.424;2022-08-19T15:01:19;18.25;;;13.30;;
68579;SDS011;55555;52.136;5.424;2022-08-19T15:03:48;21.88;;;13.90;;
68579;SDS011;55555;52.136;5.424;2022-08-19T15:06:18;21.20;;;14.52;;
68579;SDS011;55555;52.136;5.424;2022-08-19T15:08:47;26.80;;;15.70;;